createdAt,value
2023-04-04T00:01:16.578Z,39.00
2023-04-04T00:03:43.279Z,38.80
2023-04-04T00:06:09.912Z,39.20
2023-04-04T00:08:40.110Z,38.90
2023-04-04T00:11:06.602Z,38.90
2023-04-04T00:13:33.094Z,38.80
2023-04-04T00:15:59.596Z,39.10
2023-04-04T00:18:26.105Z,38.80
2023-04-04T00:20:52.586Z,38.90
2023-04-04T00:23:19.117Z,39.20
2023-04-04T00:25:45.582Z,38.60
2023-04-04T00:28:12.069Z,38.90
2023-04-04T00:30:38.687Z,38.90
2023-04-04T00:33:05.432Z,38.90
2023-04-04T00:35:31.984Z,39.00
2023-04-04T00:37:58.474Z,39.00
2023-04-04T00:40:28.174Z,39.10
2023-04-04T00:42:54.646Z,39.00
2023-04-04T00:45:22.135Z,38.80
2023-04-04T00:47:48.715Z,39.00
2023-04-04T00:50:15.280Z,39.10
2023-04-04T00:52:41.816Z,39.00
2023-04-04T00:55:08.297Z,39.20
2023-04-04T00:57:34.766Z,39.10
2023-04-04T01:00:01.245Z,39.10
2023-04-04T01:02:27.782Z,39.00
2023-04-04T01:04:54.244Z,38.90
2023-04-04T01:10:11.276Z,38.80
2023-04-04T01:12:37.751Z,39.00
2023-04-04T01:15:04.226Z,39.00
2023-04-04T01:17:30.758Z,38.90
2023-04-04T01:19:57.222Z,39.00
2023-04-04T01:22:23.706Z,38.90
2023-04-04T01:24:50.174Z,38.90
2023-04-04T01:27:16.658Z,39.00
2023-04-04T01:29:43.131Z,38.80
2023-04-04T01:32:09.606Z,38.70
2023-04-04T01:34:36.112Z,38.80
2023-04-04T01:37:02.618Z,38.80
2023-04-04T01:39:29.139Z,38.80
2023-04-04T01:41:58.201Z,38.80
2023-04-04T01:44:24.678Z,38.70
2023-04-04T01:46:51.193Z,38.90
2023-04-04T01:49:17.694Z,38.80
2023-04-04T01:51:44.168Z,38.80
2023-04-04T01:54:10.656Z,38.60
2023-04-04T01:56:37.121Z,38.80
2023-04-04T01:59:03.633Z,38.90
2023-04-04T02:01:30.247Z,39.10
2023-04-04T02:03:56.786Z,38.80
2023-04-04T02:06:23.284Z,38.90
2023-04-04T02:08:49.761Z,38.80
2023-04-04T02:11:16.226Z,38.90
2023-04-04T02:13:42.701Z,38.90
2023-04-04T02:16:09.205Z,38.80
2023-04-04T02:18:35.700Z,38.90
2023-04-04T02:21:02.228Z,38.80
2023-04-04T02:23:28.720Z,38.60
2023-04-04T02:25:55.203Z,38.70
2023-04-04T02:28:21.680Z,38.90
2023-04-04T02:30:48.151Z,38.80
2023-04-04T02:33:14.621Z,38.80
2023-04-04T02:35:41.177Z,38.70
2023-04-04T02:38:07.746Z,38.80
2023-04-04T02:40:34.233Z,38.80
2023-04-04T02:43:00.739Z,38.70
2023-04-04T02:45:27.206Z,38.80
2023-04-04T02:47:53.729Z,38.70
2023-04-04T02:50:20.258Z,38.60
2023-04-04T02:52:46.735Z,38.70
2023-04-04T02:55:13.229Z,38.60
2023-04-04T02:57:39.741Z,38.90
2023-04-04T03:00:06.216Z,38.90
2023-04-04T03:02:32.765Z,38.80
2023-04-04T03:04:59.321Z,38.80
2023-04-04T03:07:25.835Z,38.70
2023-04-04T03:09:52.349Z,38.50
2023-04-04T03:12:18.825Z,38.50
2023-04-04T03:14:45.309Z,38.70
2023-04-04T03:17:11.777Z,38.50
2023-04-04T03:19:38.247Z,38.60
2023-04-04T03:22:04.709Z,38.70
2023-04-04T03:24:31.178Z,38.70
2023-04-04T03:26:57.655Z,38.70
2023-04-04T03:29:28.283Z,38.70
2023-04-04T03:31:54.932Z,38.60
2023-04-04T03:34:21.526Z,38.60
2023-04-04T03:36:48.021Z,38.60
2023-04-04T03:39:14.496Z,38.60
2023-04-04T03:41:40.988Z,38.70
2023-04-04T03:44:07.499Z,38.60
2023-04-04T03:46:34.791Z,38.50
2023-04-04T03:49:02.389Z,38.20
2023-04-04T03:51:34.308Z,38.30
2023-04-04T03:54:00.810Z,38.50
2023-04-04T03:56:27.279Z,38.60
2023-04-04T03:58:53.793Z,38.50
2023-04-04T04:01:20.298Z,38.50
2023-04-04T04:03:46.958Z,38.40
2023-04-04T04:06:16.315Z,38.50
2023-04-04T04:08:42.805Z,38.70
2023-04-04T04:11:09.338Z,38.50
2023-04-04T04:13:35.831Z,38.50
2023-04-04T04:16:02.362Z,38.60
2023-04-04T04:18:28.875Z,38.60
2023-04-04T04:20:55.356Z,38.50
2023-04-04T04:23:21.853Z,38.30
2023-04-04T04:25:48.358Z,38.30
2023-04-04T04:28:14.842Z,38.50
2023-04-04T04:30:46.333Z,38.70
2023-04-04T04:33:12.796Z,38.40
2023-04-04T04:35:39.276Z,38.50
2023-04-04T04:38:05.788Z,38.30
2023-04-04T04:40:32.292Z,38.10
2023-04-04T04:42:58.752Z,38.20
2023-04-04T04:45:25.238Z,38.30
2023-04-04T04:47:51.737Z,38.50
2023-04-04T04:50:18.246Z,38.30
2023-04-04T04:52:46.320Z,38.30
2023-04-04T04:55:12.795Z,38.20
2023-04-04T04:57:40.335Z,38.10
2023-04-04T05:00:06.836Z,38.10
2023-04-04T05:02:33.372Z,38.20
2023-04-04T05:04:59.882Z,38.00
2023-04-04T05:07:26.363Z,38.30
2023-04-04T05:09:52.851Z,38.20
2023-04-04T05:12:22.384Z,38.20
2023-04-04T05:14:48.888Z,38.20
2023-04-04T05:17:16.371Z,38.20
2023-04-04T05:19:42.869Z,38.20
2023-04-04T05:22:09.349Z,38.20
2023-04-04T05:24:35.839Z,38.10
2023-04-04T05:27:02.315Z,38.00
2023-04-04T05:29:28.858Z,38.10
2023-04-04T05:31:55.367Z,38.20
2023-04-04T05:34:21.924Z,38.20
2023-04-04T05:36:48.408Z,38.20
2023-04-04T05:39:14.882Z,38.30
2023-04-04T05:41:41.346Z,38.10
2023-04-04T05:44:07.822Z,38.30
2023-04-04T05:46:34.475Z,38.00
2023-04-04T05:49:01.030Z,38.00
2023-04-04T05:51:27.509Z,38.10
2023-04-04T05:53:53.973Z,38.10
2023-04-04T05:56:20.436Z,38.10
2023-04-04T05:58:46.969Z,37.90
2023-04-04T06:01:13.498Z,38.00
2023-04-04T06:03:40.063Z,38.00
2023-04-04T06:06:06.717Z,38.10
2023-04-04T06:08:40.166Z,38.00
2023-04-04T06:11:16.998Z,38.10
2023-04-04T06:13:43.464Z,38.00
2023-04-04T06:16:09.995Z,38.00
2023-04-04T06:18:40.469Z,38.00
2023-04-04T06:21:06.938Z,38.10
2023-04-04T06:23:33.407Z,38.20
2023-04-04T06:25:59.899Z,38.00
2023-04-04T06:28:26.766Z,38.10
2023-04-04T06:30:53.259Z,38.00
2023-04-04T06:33:22.439Z,38.00
2023-04-04T06:35:49.127Z,38.00
2023-04-04T06:38:15.636Z,37.60
2023-04-04T06:40:42.192Z,38.00
2023-04-04T06:43:08.672Z,38.00
2023-04-04T06:45:35.130Z,38.00
2023-04-04T06:48:01.755Z,38.00
2023-04-04T06:50:28.273Z,37.90
2023-04-04T06:52:54.728Z,37.90
2023-04-04T06:55:21.221Z,38.00
2023-04-04T06:57:47.725Z,38.00
2023-04-04T07:00:14.212Z,38.00
2023-04-04T07:02:40.799Z,38.10
2023-04-04T07:05:07.324Z,38.10
2023-04-04T07:07:33.798Z,38.00
2023-04-04T07:10:00.278Z,38.10
2023-04-04T07:12:26.764Z,38.20
2023-04-04T07:14:53.225Z,38.10
2023-04-04T07:17:24.952Z,38.10
2023-04-04T07:19:51.909Z,38.10
2023-04-04T07:22:18.392Z,38.20
2023-04-04T07:24:44.852Z,38.20
2023-04-04T07:27:11.335Z,37.10
2023-04-04T07:29:37.820Z,34.90
2023-04-04T07:32:04.365Z,34.60
2023-04-04T07:34:30.864Z,35.70
2023-04-04T07:36:57.331Z,37.00
2023-04-04T07:39:23.801Z,37.90
2023-04-04T07:41:50.272Z,38.00
2023-04-04T07:44:16.763Z,37.70
2023-04-04T07:46:43.501Z,37.90
2023-04-04T07:49:10.546Z,37.90
2023-04-04T07:51:37.009Z,37.70
2023-04-04T07:54:03.491Z,37.70
2023-04-04T07:56:29.979Z,37.60
2023-04-04T07:58:56.472Z,37.70
2023-04-04T08:01:22.938Z,37.60
2023-04-04T08:03:49.527Z,37.70
2023-04-04T08:06:16.136Z,37.50
2023-04-04T08:08:46.505Z,37.80
2023-04-04T08:11:12.991Z,37.60
2023-04-04T08:13:39.476Z,37.80
2023-04-04T08:16:06.012Z,37.70
2023-04-04T08:18:32.515Z,37.60
2023-04-04T08:20:58.961Z,37.80
2023-04-04T08:23:25.446Z,37.60
2023-04-04T08:25:51.934Z,37.60
2023-04-04T08:28:18.456Z,37.70
2023-04-04T08:30:44.923Z,37.70
2023-04-04T08:33:11.491Z,37.60
2023-04-04T08:35:40.562Z,37.70
2023-04-04T08:38:07.045Z,37.70
2023-04-04T08:40:34.396Z,37.50
2023-04-04T08:43:01.430Z,37.70
2023-04-04T08:45:27.903Z,37.40
2023-04-04T08:47:54.423Z,37.60
2023-04-04T08:50:21.027Z,37.40
2023-04-04T08:52:47.506Z,37.70
2023-04-04T08:55:14.003Z,37.30
2023-04-04T08:57:40.465Z,37.20
2023-04-04T09:00:07.120Z,37.20
2023-04-04T09:02:33.842Z,37.40
2023-04-04T09:05:06.183Z,37.60
2023-04-04T09:07:33.761Z,37.70
2023-04-04T09:10:00.628Z,37.50
2023-04-04T09:12:27.082Z,37.70
2023-04-04T09:14:53.569Z,37.50
2023-04-04T09:17:20.052Z,37.70
2023-04-04T09:19:46.533Z,37.70
2023-04-04T09:22:13.011Z,37.50
2023-04-04T09:24:40.581Z,37.50
2023-04-04T09:27:07.047Z,37.60
2023-04-04T09:29:33.530Z,37.50
2023-04-04T09:32:00.013Z,37.60
2023-04-04T09:34:26.513Z,37.50
2023-04-04T09:36:52.978Z,37.50
2023-04-04T09:39:19.434Z,37.60
2023-04-04T09:41:46.278Z,37.60
2023-04-04T09:44:12.974Z,37.70
2023-04-04T09:46:39.473Z,37.40
2023-04-04T09:49:05.962Z,37.50
2023-04-04T09:51:32.439Z,37.60
2023-04-04T09:53:58.899Z,37.50
2023-04-04T09:56:25.394Z,37.50
2023-04-04T09:59:03.123Z,37.50
2023-04-04T10:01:31.211Z,37.50
2023-04-04T10:03:57.734Z,37.40
2023-04-04T10:06:24.252Z,37.40
2023-04-04T10:08:50.763Z,37.20
2023-04-04T10:11:17.262Z,37.40
2023-04-04T10:13:43.768Z,37.50
2023-04-04T10:16:10.414Z,37.50
2023-04-04T10:18:37.181Z,37.50
2023-04-04T10:21:14.496Z,37.60
2023-04-04T10:23:42.428Z,37.70
2023-04-04T10:26:08.940Z,37.10
2023-04-04T10:28:35.413Z,37.50
2023-04-04T10:31:06.866Z,37.70
2023-04-04T10:33:33.638Z,37.70
2023-04-04T10:36:00.175Z,37.60
2023-04-04T10:38:26.699Z,37.70
2023-04-04T10:40:53.195Z,37.70
2023-04-04T10:43:19.680Z,37.70
2023-04-04T10:45:46.179Z,37.80
2023-04-04T10:48:12.757Z,37.80
2023-04-04T10:50:39.375Z,37.80
2023-04-04T10:53:05.909Z,37.60
2023-04-04T10:55:32.396Z,37.70
2023-04-04T10:57:58.939Z,37.80
2023-04-04T11:00:25.481Z,37.80
2023-04-04T11:02:52.013Z,37.90
2023-04-04T11:05:18.525Z,38.10
2023-04-04T11:07:57.264Z,38.10
2023-04-04T11:10:30.868Z,38.00
2023-04-04T11:13:11.366Z,38.00
2023-04-04T11:15:39.167Z,38.00
2023-04-04T11:18:14.356Z,38.10
2023-04-04T11:20:52.188Z,38.20
2023-04-04T11:23:18.660Z,38.00
2023-04-04T11:25:45.137Z,38.20
2023-04-04T11:28:11.627Z,38.20
2023-04-04T11:30:38.095Z,38.30
2023-04-04T11:33:07.825Z,38.30
2023-04-04T11:35:34.927Z,38.30
2023-04-04T11:38:01.445Z,38.30
2023-04-04T11:40:27.914Z,38.60
2023-04-04T11:42:54.391Z,38.40
2023-04-04T11:45:20.936Z,38.10
2023-04-04T11:47:47.507Z,38.40
2023-04-04T11:50:14.013Z,38.40
2023-04-04T11:52:40.532Z,38.50
2023-04-04T11:55:07.039Z,38.50
2023-04-04T11:57:33.507Z,38.50
2023-04-04T12:00:00.004Z,38.50
2023-04-04T12:02:26.587Z,38.60
2023-04-04T12:04:53.159Z,38.30
2023-04-04T12:07:19.727Z,38.50
2023-04-04T12:09:46.214Z,38.50
2023-04-04T12:12:12.726Z,38.60
2023-04-04T12:14:39.204Z,38.70
2023-04-04T12:17:05.670Z,38.60
2023-04-04T12:19:34.715Z,38.70
2023-04-04T12:22:01.184Z,38.80
2023-04-04T12:24:28.718Z,38.80
2023-04-04T12:26:55.185Z,38.70
2023-04-04T12:29:21.648Z,38.70
2023-04-04T12:31:48.168Z,38.80
2023-04-04T12:34:14.665Z,38.80
2023-04-04T12:36:41.137Z,38.90
2023-04-04T12:39:07.625Z,38.90
2023-04-04T12:41:34.092Z,38.80
2023-04-04T12:44:00.564Z,38.90
2023-04-04T12:46:27.065Z,39.00
2023-04-04T12:48:53.560Z,38.90
2023-04-04T12:51:20.014Z,39.00
2023-04-04T12:53:46.481Z,39.00
2023-04-04T12:56:12.952Z,39.10
2023-04-04T12:58:39.420Z,38.90
2023-04-04T13:01:05.905Z,39.10
2023-04-04T13:03:32.397Z,39.10
2023-04-04T13:05:58.875Z,39.30
2023-04-04T13:08:25.385Z,39.00
2023-04-04T13:10:51.846Z,39.20
2023-04-04T13:13:18.352Z,39.10
2023-04-04T13:15:44.832Z,39.00
2023-04-04T13:18:11.404Z,39.30
2023-04-04T13:20:37.878Z,39.20
2023-04-04T13:23:04.352Z,39.40
2023-04-04T13:25:30.844Z,39.40
2023-04-04T13:27:57.294Z,39.40
2023-04-04T13:30:23.762Z,39.50
2023-04-04T13:32:50.280Z,39.40
2023-04-04T13:35:16.778Z,39.50
2023-04-04T13:37:43.254Z,39.60
2023-04-04T13:40:09.708Z,39.60
2023-04-04T13:42:36.180Z,39.70
2023-04-04T13:45:02.666Z,39.60
2023-04-04T13:47:29.157Z,39.70
2023-04-04T13:49:55.642Z,39.70
2023-04-04T13:52:22.163Z,39.80
2023-04-04T13:54:48.680Z,39.70
2023-04-04T13:57:15.143Z,39.80
2023-04-04T13:59:41.598Z,39.80
2023-04-04T14:02:08.093Z,40.00
2023-04-04T14:04:34.602Z,39.90
2023-04-04T14:07:01.111Z,40.00
2023-04-04T14:09:27.592Z,39.90
2023-04-04T14:11:54.083Z,40.00
2023-04-04T14:14:20.576Z,40.00
2023-04-04T14:16:47.046Z,40.00
2023-04-04T14:19:16.830Z,40.10
2023-04-04T14:21:43.290Z,40.00
2023-04-04T14:24:09.748Z,40.00
2023-04-04T14:26:36.215Z,40.10
2023-04-04T14:29:02.687Z,40.20
2023-04-04T14:31:29.209Z,40.20
2023-04-04T14:33:55.717Z,40.30
2023-04-04T14:36:22.227Z,40.20
2023-04-04T14:38:48.743Z,40.20
2023-04-04T14:41:16.834Z,40.20
2023-04-04T14:43:43.320Z,40.10
2023-04-04T14:46:09.813Z,40.30
2023-04-04T14:48:36.308Z,40.20
2023-04-04T14:51:02.773Z,40.00
2023-04-04T14:53:29.240Z,40.00
2023-04-04T14:55:55.708Z,40.10
2023-04-04T14:58:22.177Z,40.10
2023-04-04T15:00:49.770Z,40.20
2023-04-04T15:03:16.273Z,40.20
2023-04-04T15:05:46.865Z,40.20
2023-04-04T15:08:13.349Z,40.20
2023-04-04T15:10:39.965Z,40.30
2023-04-04T15:13:06.671Z,40.20
2023-04-04T15:15:33.174Z,40.30
2023-04-04T15:17:59.684Z,40.30
2023-04-04T15:20:26.182Z,40.30
2023-04-04T15:22:52.746Z,40.30
2023-04-04T15:25:19.284Z,40.30
2023-04-04T15:27:45.751Z,40.30
2023-04-04T15:30:12.220Z,40.40
2023-04-04T15:32:38.740Z,40.50
2023-04-04T15:35:05.268Z,40.40
2023-04-04T15:37:31.748Z,40.40
2023-04-04T15:39:58.222Z,40.50
2023-04-04T15:42:24.698Z,40.60
2023-04-04T15:44:51.183Z,40.40
2023-04-04T15:47:17.682Z,40.50
2023-04-04T15:49:44.153Z,40.50
2023-04-04T15:52:10.639Z,40.60
2023-04-04T15:54:37.114Z,40.50
2023-04-04T15:57:03.606Z,40.60
2023-04-04T15:59:30.167Z,40.60
2023-04-04T16:01:58.919Z,40.60
2023-04-04T16:04:25.431Z,40.60
2023-04-04T16:09:42.320Z,40.60
2023-04-04T16:12:08.796Z,40.60
2023-04-04T16:14:35.266Z,40.60
2023-04-04T16:17:01.759Z,40.70
2023-04-04T16:19:28.234Z,40.80
2023-04-04T16:21:54.727Z,40.90
2023-04-04T16:24:21.192Z,40.60
2023-04-04T16:26:47.724Z,40.80
2023-04-04T16:29:14.230Z,40.80
2023-04-04T16:31:40.728Z,41.00
2023-04-04T16:34:07.246Z,41.00
2023-04-04T16:36:33.838Z,41.20
2023-04-04T16:39:00.321Z,41.30
2023-04-04T16:41:26.796Z,41.20
2023-04-04T16:43:58.949Z,41.30
2023-04-04T16:46:29.035Z,41.30
2023-04-04T16:48:55.595Z,41.20
2023-04-04T16:51:22.087Z,41.10
2023-04-04T16:53:48.570Z,41.20
2023-04-04T16:56:15.036Z,41.00
2023-04-04T16:58:47.067Z,41.00
2023-04-04T17:01:13.703Z,40.90
2023-04-04T17:03:40.228Z,40.70
2023-04-04T17:06:06.682Z,40.90
2023-04-04T17:08:33.156Z,40.90
2023-04-04T17:10:59.606Z,41.00
2023-04-04T17:13:26.081Z,41.00
2023-04-04T17:15:52.551Z,41.00
2023-04-04T17:18:19.033Z,41.20
2023-04-04T17:20:45.519Z,41.20
2023-04-04T17:23:12.014Z,41.10
2023-04-04T17:25:38.506Z,41.30
2023-04-04T17:28:05.020Z,41.40
2023-04-04T17:30:31.483Z,41.40
2023-04-04T17:32:57.998Z,41.40
2023-04-04T17:35:24.555Z,41.50
2023-04-04T17:37:51.036Z,41.50
2023-04-04T17:40:17.590Z,41.40
2023-04-04T17:42:47.050Z,41.40
2023-04-04T17:45:17.006Z,41.50
2023-04-04T17:47:43.528Z,41.60
2023-04-04T17:50:10.090Z,41.50
2023-04-04T17:52:36.587Z,41.50
2023-04-04T17:55:03.077Z,41.50
2023-04-04T17:57:29.550Z,41.50
2023-04-04T17:59:58.990Z,41.50
2023-04-04T18:02:25.453Z,41.50
2023-04-04T18:04:51.929Z,41.50
2023-04-04T18:07:18.405Z,41.50
2023-04-04T18:09:44.880Z,41.60
2023-04-04T18:12:11.411Z,41.50
2023-04-04T18:14:37.943Z,41.50
2023-04-04T18:17:04.412Z,41.50
2023-04-04T18:19:35.026Z,41.40
2023-04-04T18:22:01.515Z,41.50
2023-04-04T18:24:28.027Z,41.50
2023-04-04T18:26:54.502Z,41.50
2023-04-04T18:29:20.998Z,41.50
2023-04-04T18:31:47.504Z,41.40
2023-04-04T18:34:14.044Z,41.50
2023-04-04T18:36:40.565Z,41.50
2023-04-04T18:39:07.034Z,41.50
2023-04-04T18:41:33.514Z,41.60
2023-04-04T18:44:03.025Z,41.50
2023-04-04T18:46:29.595Z,41.50
2023-04-04T18:48:56.081Z,41.50
2023-04-04T18:51:23.860Z,41.60
2023-04-04T18:53:50.507Z,41.50
2023-04-04T18:56:16.995Z,41.50
2023-04-04T18:58:43.463Z,41.60
2023-04-04T19:01:10.069Z,41.50
2023-04-04T19:03:36.685Z,41.60
2023-04-04T19:06:03.250Z,41.50
2023-04-04T19:08:29.738Z,41.50
2023-04-04T19:10:56.193Z,41.60
2023-04-04T19:13:22.684Z,41.60
2023-04-04T19:15:49.202Z,41.60
2023-04-04T19:18:15.676Z,41.60
2023-04-04T19:20:42.185Z,41.60
2023-04-04T19:23:08.701Z,41.60
2023-04-04T19:25:35.197Z,41.50
2023-04-04T19:28:01.673Z,41.60
2023-04-04T19:30:28.168Z,41.60
2023-04-04T19:32:54.694Z,41.60
2023-04-04T19:35:21.279Z,41.60
2023-04-04T19:37:47.748Z,41.60
2023-04-04T19:40:14.246Z,41.60
2023-04-04T19:42:40.745Z,41.50
2023-04-04T19:45:07.224Z,41.60
2023-04-04T19:47:33.747Z,41.60
2023-04-04T19:50:00.319Z,41.60
2023-04-04T19:52:26.806Z,41.60
2023-04-04T19:54:53.269Z,41.50
2023-04-04T19:57:19.785Z,41.60
2023-04-04T19:59:46.308Z,41.60
2023-04-04T20:02:12.818Z,41.50
2023-04-04T20:04:39.358Z,41.50
2023-04-04T20:07:05.842Z,41.60
2023-04-04T20:09:32.305Z,41.60
2023-04-04T20:11:58.783Z,41.40
2023-04-04T20:14:25.275Z,41.50
2023-04-04T20:16:51.781Z,41.50
2023-04-04T20:19:23.288Z,41.30
2023-04-04T20:21:49.940Z,41.50
2023-04-04T20:24:16.634Z,41.60
2023-04-04T20:26:43.142Z,41.50
2023-04-04T20:29:09.585Z,41.50
2023-04-04T20:31:36.135Z,41.50
2023-04-04T20:34:02.620Z,41.40
2023-04-04T20:36:35.325Z,41.50
2023-04-04T20:39:01.803Z,41.50
2023-04-04T20:41:28.263Z,41.40
2023-04-04T20:43:54.724Z,41.40
2023-04-04T20:46:21.251Z,41.50
2023-04-04T20:48:47.815Z,41.50
2023-04-04T20:51:14.328Z,41.50
2023-04-04T20:53:40.790Z,41.40
2023-04-04T20:56:07.261Z,41.50
2023-04-04T20:58:33.751Z,41.40
2023-04-04T21:01:00.312Z,41.40
2023-04-04T21:03:26.845Z,41.40
2023-04-04T21:05:53.348Z,41.30
2023-04-04T21:08:19.829Z,41.40
2023-04-04T21:10:46.305Z,41.30
2023-04-04T21:13:12.796Z,41.40
2023-04-04T21:15:39.405Z,41.40
2023-04-04T21:18:05.941Z,41.40
2023-04-04T21:20:32.481Z,41.40
2023-04-04T21:22:58.961Z,41.30
2023-04-04T21:25:25.458Z,41.40
2023-04-04T21:27:51.930Z,41.30
2023-04-04T21:30:18.395Z,41.30
2023-04-04T21:32:44.912Z,41.30
2023-04-04T21:35:17.170Z,41.30
2023-04-04T21:37:43.657Z,41.40
2023-04-04T21:40:10.140Z,41.30
2023-04-04T21:42:36.606Z,41.20
2023-04-04T21:45:03.083Z,41.30
2023-04-04T21:47:29.607Z,41.40
2023-04-04T21:49:56.121Z,41.20
2023-04-04T21:52:23.156Z,41.30
2023-04-04T21:54:53.190Z,41.30
2023-04-04T21:57:19.651Z,41.30
2023-04-04T21:59:47.196Z,41.20
2023-04-04T22:02:13.736Z,41.30
2023-04-04T22:04:40.407Z,41.30
2023-04-04T22:07:06.887Z,41.20
2023-04-04T22:09:35.223Z,41.30
2023-04-04T22:12:01.679Z,41.30
2023-04-04T22:14:29.212Z,41.20
2023-04-04T22:16:59.223Z,41.20
2023-04-04T22:19:25.725Z,41.10
2023-04-04T22:21:52.195Z,41.20
2023-04-04T22:24:18.983Z,41.10
2023-04-04T22:26:45.497Z,41.10
2023-04-04T22:29:11.993Z,41.10
2023-04-04T22:31:38.467Z,41.10
2023-04-04T22:34:05.000Z,40.80
2023-04-04T22:36:35.271Z,41.00
2023-04-04T22:39:01.770Z,41.00
2023-04-04T22:41:28.566Z,41.10
2023-04-04T22:43:55.286Z,41.00
2023-04-04T22:46:21.868Z,40.90
2023-04-04T22:48:48.510Z,40.90
2023-04-04T22:51:14.992Z,40.90
2023-04-04T22:53:41.471Z,40.90
2023-04-04T22:58:59.284Z,40.90
2023-04-04T23:01:25.804Z,40.70
2023-04-04T23:03:52.341Z,40.90
2023-04-04T23:09:09.283Z,40.80
2023-04-04T23:11:35.775Z,40.60
2023-04-04T23:14:02.373Z,40.60
2023-04-04T23:19:23.277Z,40.80
2023-04-04T23:21:49.778Z,40.70
2023-04-04T23:24:16.257Z,40.60
2023-04-04T23:26:47.273Z,40.70
2023-04-04T23:29:13.750Z,40.60
2023-04-04T23:31:41.329Z,40.60
2023-04-04T23:34:25.888Z,40.70
2023-04-04T23:36:52.374Z,40.70
2023-04-04T23:39:18.837Z,40.60
2023-04-04T23:41:47.288Z,40.60
2023-04-04T23:44:23.396Z,40.50
2023-04-04T23:46:49.983Z,40.50
2023-04-04T23:49:16.527Z,40.50
2023-04-04T23:51:47.336Z,40.50
2023-04-04T23:54:13.793Z,40.50
2023-04-04T23:56:40.287Z,40.60
2023-04-04T23:59:11.539Z,40.50
